sensor_id;sensor_type;location;lat;lon;timestamp;pressure;altitude;pressure_sealevel;temperature;humidity
38852;BME280;24605;50.092;9.182;2023-03-04T00:02:12;98531.75;;;-2.00;100.00
38852;BME280;24605;50.092;9.182;2023-03-04T00:04:39;98534.59;;;-2.24;100.00
38852;BME280;24605;50.092;9.182;2023-03-04T00:07:05;98534.06;;;-2.30;100.00
38852;BME280;24605;50.092;9.182;2023-03-04T00:09:32;98535.00;;;-2.14;100.00
38852;BME280;24605;50.092;9.182;2023-03-04T00:12:00;98534.53;;;-2.05;100.00
38852;BME280;24605;50.092;9.182;2023-03-04T00:14:26;98536.41;;;-2.26;100.00
38852;BME280;24605;50.092;9.182;2023-03-04T00:16:52;98537.81;;;-2.38;100.00
38852;BME280;24605;50.092;9.182;2023-03-04T00:19:19;98538.66;;;-2.37;100.00
38852;BME280;24605;50.092;9.182;2023-03-04T00:21:45;98540.03;;;-2.30;100.00
38852;BME280;24605;50.092;9.182;2023-03-04T00:24:12;98540.41;;;-2.20;100.00
38852;BME280;24605;50.092;9.182;2023-03-04T00:26:38;98540.94;;;-2.13;100.00
38852;BME280;24605;50.092;9.182;2023-03-04T00:29:06;98542.31;;;-2.06;100.00
38852;BME280;24605;50.092;9.182;2023-03-04T00:31:32;98539.69;;;-2.05;100.00
38852;BME280;24605;50.092;9.182;2023-03-04T00:33:59;98536.81;;;-1.98;100.00
38852;BME280;24605;50.092;9.182;2023-03-04T00:36:25;98518.78;;;-2.33;100.00
38852;BME280;24605;50.092;9.182;2023-03-04T00:38:52;98538.34;;;-2.31;100.00
38852;BME280;24605;50.092;9.182;2023-03-04T00:41:19;98532.47;;;-2.15;100.00
38852;BME280;24605;50.092;9.182;2023-03-04T00:43:45;98539.94;;;-2.28;100.00
38852;BME280;24605;50.092;9.182;2023-03-04T00:46:13;98522.31;;;-2.54;100.00
38852;BME280;24605;50.092;9.182;2023-03-04T00:48:42;98537.97;;;-2.41;100.00
38852;BME280;24605;50.092;9.182;2023-03-04T00:51:08;98537.97;;;-2.60;100.00
38852;BME280;24605;50.092;9.182;2023-03-04T00:53:35;98541.06;;;-2.71;100.00
38852;BME280;24605;50.092;9.182;2023-03-04T00:56:01;98553.41;;;-2.79;100.00
38852;BME280;24605;50.092;9.182;2023-03-04T00:58:28;98536.97;;;-2.75;100.00
38852;BME280;24605;50.092;9.182;2023-03-04T01:00:54;98536.75;;;-2.89;100.00
38852;BME280;24605;50.092;9.182;2023-03-04T01:03:22;98538.50;;;-3.09;100.00
38852;BME280;24605;50.092;9.182;2023-03-04T01:05:51;98541.28;;;-2.94;100.00
38852;BME280;24605;50.092;9.182;2023-03-04T01:08:17;98540.94;;;-2.87;100.00
38852;BME280;24605;50.092;9.182;2023-03-04T01:10:44;98540.50;;;-2.96;100.00
38852;BME280;24605;50.092;9.182;2023-03-04T01:13:10;98533.91;;;-3.02;100.00
38852;BME280;24605;50.092;9.182;2023-03-04T01:15:36;98544.25;;;-2.85;100.00
38852;BME280;24605;50.092;9.182;2023-03-04T01:18:03;98544.81;;;-2.78;100.00
38852;BME280;24605;50.092;9.182;2023-03-04T01:20:31;98528.38;;;-2.93;100.00
38852;BME280;24605;50.092;9.182;2023-03-04T01:22:58;98536.47;;;-3.02;100.00
38852;BME280;24605;50.092;9.182;2023-03-04T01:25:25;98524.13;;;-3.13;100.00
38852;BME280;24605;50.092;9.182;2023-03-04T01:27:51;98521.00;;;-3.20;100.00
38852;BME280;24605;50.092;9.182;2023-03-04T01:30:18;98522.31;;;-3.30;100.00
38852;BME280;24605;50.092;9.182;2023-03-04T01:32:44;98521.28;;;-3.26;100.00
38852;BME280;24605;50.092;9.182;2023-03-04T01:35:11;98515.47;;;-3.10;100.00
38852;BME280;24605;50.092;9.182;2023-03-04T01:37:39;98505.66;;;-3.01;100.00
38852;BME280;24605;50.092;9.182;2023-03-04T01:40:07;98508.28;;;-2.83;100.00
38852;BME280;24605;50.092;9.182;2023-03-04T01:42:35;98510.41;;;-2.74;100.00
38852;BME280;24605;50.092;9.182;2023-03-04T01:45:02;98498.56;;;-2.40;100.00
38852;BME280;24605;50.092;9.182;2023-03-04T01:47:31;98492.47;;;-2.19;100.00
38852;BME280;24605;50.092;9.182;2023-03-04T01:50:00;98489.44;;;-2.10;100.00
38852;BME280;24605;50.092;9.182;2023-03-04T01:52:28;98487.44;;;-1.87;100.00
38852;BME280;24605;50.092;9.182;2023-03-04T01:54:56;98479.28;;;-1.78;100.00
38852;BME280;24605;50.092;9.182;2023-03-04T01:57:25;98486.22;;;-1.80;100.00
38852;BME280;24605;50.092;9.182;2023-03-04T02:00:17;98486.13;;;-1.61;100.00
38852;BME280;24605;50.092;9.182;2023-03-04T02:02:44;98480.34;;;-1.49;100.00
38852;BME280;24605;50.092;9.182;2023-03-04T02:05:11;98481.88;;;-1.45;100.00
38852;BME280;24605;50.092;9.182;2023-03-04T02:07:37;98476.38;;;-1.54;100.00
38852;BME280;24605;50.092;9.182;2023-03-04T02:10:07;98472.81;;;-1.36;100.00
38852;BME280;24605;50.092;9.182;2023-03-04T02:12:33;98481.41;;;-1.19;100.00
38852;BME280;24605;50.092;9.182;2023-03-04T02:15:00;98469.88;;;-0.96;100.00
38852;BME280;24605;50.092;9.182;2023-03-04T02:17:27;98463.09;;;-0.97;100.00
38852;BME280;24605;50.092;9.182;2023-03-04T02:19:58;98470.28;;;-0.72;100.00
38852;BME280;24605;50.092;9.182;2023-03-04T02:22:27;98466.28;;;-0.61;100.00
38852;BME280;24605;50.092;9.182;2023-03-04T02:24:57;98472.94;;;-0.57;100.00
38852;BME280;24605;50.092;9.182;2023-03-04T02:27:26;98462.31;;;-0.67;100.00
38852;BME280;24605;50.092;9.182;2023-03-04T02:29:52;98466.44;;;-0.49;100.00
38852;BME280;24605;50.092;9.182;2023-03-04T02:32:19;98466.59;;;-0.52;100.00
38852;BME280;24605;50.092;9.182;2023-03-04T02:34:47;98459.97;;;-0.56;100.00
38852;BME280;24605;50.092;9.182;2023-03-04T02:37:14;98459.97;;;-0.56;100.00
38852;BME280;24605;50.092;9.182;2023-03-04T02:39:42;98397.97;;;-0.83;100.00
38852;BME280;24605;50.092;9.182;2023-03-04T02:42:09;98445.94;;;-0.66;100.00
38852;BME280;24605;50.092;9.182;2023-03-04T02:44:39;98461.97;;;-0.30;100.00
38852;BME280;24605;50.092;9.182;2023-03-04T02:47:08;98382.63;;;-0.85;100.00
38852;BME280;24605;50.092;9.182;2023-03-04T02:49:37;98454.06;;;-0.58;100.00
38852;BME280;24605;50.092;9.182;2023-03-04T02:52:07;98458.72;;;-0.65;100.00
38852;BME280;24605;50.092;9.182;2023-03-04T02:54:36;98454.97;;;-0.59;100.00
38852;BME280;24605;50.092;9.182;2023-03-04T02:57:05;98445.84;;;-0.65;100.00
38852;BME280;24605;50.092;9.182;2023-03-04T02:59:32;98449.13;;;-0.77;100.00
38852;BME280;24605;50.092;9.182;2023-03-04T03:02:00;98413.84;;;-0.91;100.00
38852;BME280;24605;50.092;9.182;2023-03-04T03:04:27;98445.13;;;-0.83;100.00
38852;BME280;24605;50.092;9.182;2023-03-04T03:06:53;98447.88;;;-0.86;100.00
38852;BME280;24605;50.092;9.182;2023-03-04T03:09:20;98440.03;;;-0.52;100.00
38852;BME280;24605;50.092;9.182;2023-03-04T03:11:47;98440.50;;;-0.45;100.00
38852;BME280;24605;50.092;9.182;2023-03-04T03:14:13;98442.31;;;-0.62;100.00
38852;BME280;24605;50.092;9.182;2023-03-04T03:16:40;98429.88;;;-0.55;100.00
38852;BME280;24605;50.092;9.182;2023-03-04T03:19:08;98440.69;;;-0.49;100.00
38852;BME280;24605;50.092;9.182;2023-03-04T03:21:35;98449.31;;;-0.50;100.00
38852;BME280;24605;50.092;9.182;2023-03-04T03:24:01;98447.13;;;-0.41;100.00
38852;BME280;24605;50.092;9.182;2023-03-04T03:26:28;98441.50;;;-0.48;100.00
38852;BME280;24605;50.092;9.182;2023-03-04T03:28:54;98448.28;;;-0.31;100.00
38852;BME280;24605;50.092;9.182;2023-03-04T03:31:21;98450.03;;;-0.32;100.00
38852;BME280;24605;50.092;9.182;2023-03-04T03:33:47;98445.22;;;-0.38;100.00
38852;BME280;24605;50.092;9.182;2023-03-04T03:36:15;98456.16;;;-0.34;100.00
38852;BME280;24605;50.092;9.182;2023-03-04T03:38:42;98453.84;;;-0.39;100.00
38852;BME280;24605;50.092;9.182;2023-03-04T03:41:08;98453.72;;;-0.52;100.00
38852;BME280;24605;50.092;9.182;2023-03-04T03:43:34;98454.16;;;-0.59;100.00
38852;BME280;24605;50.092;9.182;2023-03-04T03:46:01;98446.84;;;-0.67;100.00
38852;BME280;24605;50.092;9.182;2023-03-04T03:48:27;98453.09;;;-0.71;100.00
38852;BME280;24605;50.092;9.182;2023-03-04T03:50:54;98445.19;;;-0.68;100.00
38852;BME280;24605;50.092;9.182;2023-03-04T03:53:22;98444.69;;;-0.75;100.00
38852;BME280;24605;50.092;9.182;2023-03-04T03:55:48;98446.38;;;-0.74;100.00
38852;BME280;24605;50.092;9.182;2023-03-04T03:58:14;98450.69;;;-0.74;100.00
38852;BME280;24605;50.092;9.182;2023-03-04T04:00:41;98441.03;;;-0.55;100.00
38852;BME280;24605;50.092;9.182;2023-03-04T04:03:10;98444.88;;;-0.62;100.00
38852;BME280;24605;50.092;9.182;2023-03-04T04:05:39;98443.53;;;-0.69;100.00
38852;BME280;24605;50.092;9.182;2023-03-04T04:08:05;98421.97;;;-0.83;100.00
38852;BME280;24605;50.092;9.182;2023-03-04T04:10:33;98443.72;;;-0.88;100.00
38852;BME280;24605;50.092;9.182;2023-03-04T04:13:00;98445.03;;;-0.81;100.00
38852;BME280;24605;50.092;9.182;2023-03-04T04:15:26;98441.97;;;-0.72;100.00
38852;BME280;24605;50.092;9.182;2023-03-04T04:17:53;98424.19;;;-0.76;100.00
38852;BME280;24605;50.092;9.182;2023-03-04T04:20:19;98445.09;;;-0.51;100.00
38852;BME280;24605;50.092;9.182;2023-03-04T04:22:46;98447.50;;;-0.48;100.00
38852;BME280;24605;50.092;9.182;2023-03-04T04:25:12;98439.59;;;-0.44;100.00
38852;BME280;24605;50.092;9.182;2023-03-04T04:27:40;98441.44;;;-0.46;100.00
38852;BME280;24605;50.092;9.182;2023-03-04T04:30:07;98442.31;;;-0.62;100.00
38852;BME280;24605;50.092;9.182;2023-03-04T04:32:34;98440.13;;;-0.54;100.00
38852;BME280;24605;50.092;9.182;2023-03-04T04:35:00;98439.25;;;-0.38;100.00
38852;BME280;24605;50.092;9.182;2023-03-04T04:37:27;98415.66;;;-0.77;100.00
38852;BME280;24605;50.092;9.182;2023-03-04T04:39:53;98441.44;;;-0.63;100.00
38852;BME280;24605;50.092;9.182;2023-03-04T04:42:20;98434.22;;;-0.56;100.00
38852;BME280;24605;50.092;9.182;2023-03-04T04:44:48;98431.03;;;-0.45;100.00
38852;BME280;24605;50.092;9.182;2023-03-04T04:47:15;98432.69;;;-0.44;100.00
38852;BME280;24605;50.092;9.182;2023-03-04T04:49:42;98430.91;;;-0.58;100.00
38852;BME280;24605;50.092;9.182;2023-03-04T04:52:09;98429.22;;;-0.59;100.00
38852;BME280;24605;50.092;9.182;2023-03-04T04:54:36;98436.22;;;-0.61;100.00
38852;BME280;24605;50.092;9.182;2023-03-04T04:57:02;98429.06;;;-0.56;100.00
38852;BME280;24605;50.092;9.182;2023-03-04T04:59:29;98421.91;;;-0.51;100.00
38852;BME280;24605;50.092;9.182;2023-03-04T05:01:56;98423.53;;;-0.64;100.00
38852;BME280;24605;50.092;9.182;2023-03-04T05:04:23;98425.59;;;-0.55;100.00
38852;BME280;24605;50.092;9.182;2023-03-04T05:06:50;98426.03;;;-0.48;100.00
38852;BME280;24605;50.092;9.182;2023-03-04T05:09:16;98422.22;;;-0.41;100.00
38852;BME280;24605;50.092;9.182;2023-03-04T05:11:43;98423.69;;;-0.37;100.00
38852;BME280;24605;50.092;9.182;2023-03-04T05:14:10;98425.00;;;-0.29;100.00
38852;BME280;24605;50.092;9.182;2023-03-04T05:16:36;98428.09;;;-0.39;100.00
38852;BME280;24605;50.092;9.182;2023-03-04T05:19:05;98385.78;;;-0.49;100.00
38852;BME280;24605;50.092;9.182;2023-03-04T05:21:31;98420.50;;;-0.26;100.00
38852;BME280;24605;50.092;9.182;2023-03-04T05:23:58;98392.56;;;-0.48;100.00
38852;BME280;24605;50.092;9.182;2023-03-04T05:26:24;98432.72;;;-0.29;100.00
38852;BME280;24605;50.092;9.182;2023-03-04T05:28:51;98422.75;;;-0.20;100.00
38852;BME280;24605;50.092;9.182;2023-03-04T05:31:17;98405.84;;;-0.40;100.00
38852;BME280;24605;50.092;9.182;2023-03-04T05:33:43;98433.19;;;-0.37;100.00
38852;BME280;24605;50.092;9.182;2023-03-04T05:36:11;98397.28;;;-0.40;100.00
38852;BME280;24605;50.092;9.182;2023-03-04T05:38:38;98426.41;;;-0.24;100.00
38852;BME280;24605;50.092;9.182;2023-03-04T05:41:06;98407.88;;;-0.30;100.00
38852;BME280;24605;50.092;9.182;2023-03-04T05:43:33;98421.81;;;-0.19;100.00
38852;BME280;24605;50.092;9.182;2023-03-04T05:46:01;98433.22;;;-0.23;100.00
38852;BME280;24605;50.092;9.182;2023-03-04T05:48:27;98437.28;;;-0.19;100.00
38852;BME280;24605;50.092;9.182;2023-03-04T05:50:54;98432.78;;;-0.15;100.00
38852;BME280;24605;50.092;9.182;2023-03-04T05:53:22;98428.91;;;-0.08;100.00
38852;BME280;24605;50.092;9.182;2023-03-04T05:55:49;98423.50;;;0.11;100.00
38852;BME280;24605;50.092;9.182;2023-03-04T05:58:17;98431.34;;;0.10;100.00
38852;BME280;24605;50.092;9.182;2023-03-04T06:00:44;98434.56;;;0.13;100.00
38852;BME280;24605;50.092;9.182;2023-03-04T06:03:13;98424.78;;;0.19;100.00
38852;BME280;24605;50.092;9.182;2023-03-04T06:05:40;98431.97;;;0.28;100.00
38852;BME280;24605;50.092;9.182;2023-03-04T06:08:06;98433.84;;;0.26;100.00
38852;BME280;24605;50.092;9.182;2023-03-04T06:10:34;98432.72;;;0.30;100.00
38852;BME280;24605;50.092;9.182;2023-03-04T06:13:00;98436.69;;;0.21;100.00
38852;BME280;24605;50.092;9.182;2023-03-04T06:15:27;98443.31;;;0.11;100.00
38852;BME280;24605;50.092;9.182;2023-03-04T06:17:53;98441.66;;;0.10;100.00
38852;BME280;24605;50.092;9.182;2023-03-04T06:20:20;98438.44;;;0.21;100.00
38852;BME280;24605;50.092;9.182;2023-03-04T06:22:46;98450.50;;;0.35;100.00
38852;BME280;24605;50.092;9.182;2023-03-04T06:25:13;98456.19;;;0.25;100.00
38852;BME280;24605;50.092;9.182;2023-03-04T06:27:41;98459.34;;;0.30;100.00
38852;BME280;24605;50.092;9.182;2023-03-04T06:30:08;98463.94;;;0.11;100.00
38852;BME280;24605;50.092;9.182;2023-03-04T06:32:35;98464.09;;;0.22;100.00
38852;BME280;24605;50.092;9.182;2023-03-04T06:35:02;98460.22;;;0.15;100.00
38852;BME280;24605;50.092;9.182;2023-03-04T06:37:28;98468.66;;;0.33;100.00
38852;BME280;24605;50.092;9.182;2023-03-04T06:39:54;98463.94;;;0.54;100.00
38852;BME280;24605;50.092;9.182;2023-03-04T06:42:21;98464.59;;;0.43;100.00
38852;BME280;24605;50.092;9.182;2023-03-04T06:44:49;98475.84;;;0.42;100.00
38852;BME280;24605;50.092;9.182;2023-03-04T06:47:15;98470.97;;;0.38;100.00
38852;BME280;24605;50.092;9.182;2023-03-04T06:49:43;98466.34;;;0.43;100.00
38852;BME280;24605;50.092;9.182;2023-03-04T06:52:09;98473.16;;;0.44;100.00
38852;BME280;24605;50.092;9.182;2023-03-04T06:54:37;98480.25;;;0.40;100.00
38852;BME280;24605;50.092;9.182;2023-03-04T06:57:04;98478.03;;;0.49;100.00
38852;BME280;24605;50.092;9.182;2023-03-04T06:59:30;98476.00;;;0.54;100.00
38852;BME280;24605;50.092;9.182;2023-03-04T07:01:58;98485.34;;;0.56;100.00
38852;BME280;24605;50.092;9.182;2023-03-04T07:04:24;98486.41;;;0.67;100.00
38852;BME280;24605;50.092;9.182;2023-03-04T07:06:51;98481.06;;;0.70;100.00
38852;BME280;24605;50.092;9.182;2023-03-04T07:09:17;98475.63;;;0.74;100.00
38852;BME280;24605;50.092;9.182;2023-03-04T07:11:44;98483.28;;;0.76;100.00
38852;BME280;24605;50.092;9.182;2023-03-04T07:14:10;98485.22;;;0.58;100.00
38852;BME280;24605;50.092;9.182;2023-03-04T07:16:37;98484.56;;;0.69;100.00
38852;BME280;24605;50.092;9.182;2023-03-04T07:19:05;98487.44;;;0.50;100.00
38852;BME280;24605;50.092;9.182;2023-03-04T07:21:31;98491.59;;;0.52;100.00
38852;BME280;24605;50.092;9.182;2023-03-04T07:23:58;98493.06;;;0.56;100.00
38852;BME280;24605;50.092;9.182;2023-03-04T07:26:25;98494.91;;;0.69;100.00
38852;BME280;24605;50.092;9.182;2023-03-04T07:28:51;98485.19;;;1.01;100.00
38852;BME280;24605;50.092;9.182;2023-03-04T07:31:21;98491.16;;;1.02;100.00
38852;BME280;24605;50.092;9.182;2023-03-04T07:33:49;98477.78;;;1.09;100.00
38852;BME280;24605;50.092;9.182;2023-03-04T07:36:17;98496.63;;;1.12;100.00
38852;BME280;24605;50.092;9.182;2023-03-04T07:38:44;98498.16;;;1.14;100.00
38852;BME280;24605;50.092;9.182;2023-03-04T07:41:11;98499.72;;;1.17;100.00
38852;BME280;24605;50.092;9.182;2023-03-04T07:43:38;98501.97;;;1.08;100.00
38852;BME280;24605;50.092;9.182;2023-03-04T07:46:04;98500.28;;;1.22;100.00
38852;BME280;24605;50.092;9.182;2023-03-04T07:48:31;98506.38;;;1.21;100.00
38852;BME280;24605;50.092;9.182;2023-03-04T07:51:05;98504.31;;;1.26;100.00
38852;BME280;24605;50.092;9.182;2023-03-04T07:53:34;98500.88;;;1.40;100.00
38852;BME280;24605;50.092;9.182;2023-03-04T07:56:01;98504.72;;;1.20;100.00
38852;BME280;24605;50.092;9.182;2023-03-04T07:58:27;98497.03;;;1.33;100.00
38852;BME280;24605;50.092;9.182;2023-03-04T08:00:54;98502.25;;;1.46;100.00
38852;BME280;24605;50.092;9.182;2023-03-04T08:03:21;98424.72;;;1.05;100.00
38852;BME280;24605;50.092;9.182;2023-03-04T08:05:47;98514.56;;;1.55;100.00
38852;BME280;24605;50.092;9.182;2023-03-04T08:08:14;98513.22;;;1.49;100.00
38852;BME280;24605;50.092;9.182;2023-03-04T08:10:42;98516.94;;;1.45;100.00
38852;BME280;24605;50.092;9.182;2023-03-04T08:13:08;98514.47;;;1.29;100.00
38852;BME280;24605;50.092;9.182;2023-03-04T08:15:38;98516.31;;;1.27;100.00
38852;BME280;24605;50.092;9.182;2023-03-04T08:18:05;98516.34;;;0.98;100.00
38852;BME280;24605;50.092;9.182;2023-03-04T08:20:31;98517.66;;;1.05;100.00
38852;BME280;24605;50.092;9.182;2023-03-04T08:22:58;98518.22;;;1.38;100.00
38852;BME280;24605;50.092;9.182;2023-03-04T08:25:24;98520.09;;;1.36;100.00
38852;BME280;24605;50.092;9.182;2023-03-04T08:27:52;98520.44;;;1.30;100.00
38852;BME280;24605;50.092;9.182;2023-03-04T08:30:19;98512.78;;;1.70;100.00
38852;BME280;24605;50.092;9.182;2023-03-04T08:32:45;98515.22;;;1.31;100.00
38852;BME280;24605;50.092;9.182;2023-03-04T08:35:12;98521.00;;;1.62;100.00
38852;BME280;24605;50.092;9.182;2023-03-04T08:37:38;98525.88;;;1.67;100.00
38852;BME280;24605;50.092;9.182;2023-03-04T08:40:05;98525.59;;;1.71;100.00
38852;BME280;24605;50.092;9.182;2023-03-04T08:42:32;98530.22;;;1.66;100.00
38852;BME280;24605;50.092;9.182;2023-03-04T08:45:00;98512.19;;;1.52;100.00
38852;BME280;24605;50.092;9.182;2023-03-04T08:47:26;98525.88;;;1.67;100.00
38852;BME280;24605;50.092;9.182;2023-03-04T08:49:53;98525.31;;;1.89;100.00
38852;BME280;24605;50.092;9.182;2023-03-04T08:52:19;98521.00;;;1.62;100.00
38852;BME280;24605;50.092;9.182;2023-03-04T08:54:46;98527.59;;;1.81;100.00
38852;BME280;24605;50.092;9.182;2023-03-04T08:57:13;98522.56;;;1.92;100.00
38852;BME280;24605;50.092;9.182;2023-03-04T08:59:39;98522.75;;;1.89;100.00
38852;BME280;24605;50.092;9.182;2023-03-04T09:02:08;98524.72;;;1.98;100.00
38852;BME280;24605;50.092;9.182;2023-03-04T09:04:35;98519.53;;;1.85;100.00
38852;BME280;24605;50.092;9.182;2023-03-04T09:07:01;98512.19;;;1.79;100.00
38852;BME280;24605;50.092;9.182;2023-03-04T09:09:28;98523.00;;;2.12;100.00
38852;BME280;24605;50.092;9.182;2023-03-04T09:11:54;98526.13;;;2.17;100.00
38852;BME280;24605;50.092;9.182;2023-03-04T09:14:21;98525.94;;;2.20;100.00
38852;BME280;24605;50.092;9.182;2023-03-04T09:16:47;98524.84;;;1.97;100.00
38852;BME280;24605;50.092;9.182;2023-03-04T09:19:15;98499.38;;;2.03;100.00
38852;BME280;24605;50.092;9.182;2023-03-04T09:21:42;98524.88;;;2.23;100.00
38852;BME280;24605;50.092;9.182;2023-03-04T09:24:08;98520.84;;;2.31;100.00
38852;BME280;24605;50.092;9.182;2023-03-04T09:26:34;98523.97;;;2.37;100.00
38852;BME280;24605;50.092;9.182;2023-03-04T09:29:02;98501.81;;;2.19;100.00
38852;BME280;24605;50.092;9.182;2023-03-04T09:31:28;98513.72;;;2.35;100.00
38852;BME280;24605;50.092;9.182;2023-03-04T09:33:56;98522.09;;;2.51;100.00
38852;BME280;24605;50.092;9.182;2023-03-04T09:36:25;98511.34;;;2.45;100.00
38852;BME280;24605;50.092;9.182;2023-03-04T09:38:51;98502.53;;;2.34;100.00
38852;BME280;24605;50.092;9.182;2023-03-04T09:41:20;98513.72;;;2.48;100.00
38852;BME280;24605;50.092;9.182;2023-03-04T09:43:48;98524.34;;;2.17;100.00
38852;BME280;24605;50.092;9.182;2023-03-04T09:46:21;98522.75;;;2.42;100.00
38852;BME280;24605;50.092;9.182;2023-03-04T09:48:51;98519.31;;;2.55;100.00
38852;BME280;24605;50.092;9.182;2023-03-04T09:51:20;98515.78;;;2.56;100.00
38852;BME280;24605;50.092;9.182;2023-03-04T09:53:58;98518.88;;;2.61;100.00
38852;BME280;24605;50.092;9.182;2023-03-04T09:56:28;98518.19;;;2.72;100.00
38852;BME280;24605;50.092;9.182;2023-03-04T09:59:02;98520.34;;;2.52;100.00
38852;BME280;24605;50.092;9.182;2023-03-04T10:01:35;98518.88;;;2.61;100.00
38852;BME280;24605;50.092;9.182;2023-03-04T10:04:05;98526.16;;;2.56;100.00
38852;BME280;24605;50.092;9.182;2023-03-04T10:06:38;98525.53;;;2.52;100.00
38852;BME280;24605;50.092;9.182;2023-03-04T10:09:10;98528.13;;;2.52;100.00
38852;BME280;24605;50.092;9.182;2023-03-04T10:11:41;98519.72;;;2.61;100.00
38852;BME280;24605;50.092;9.182;2023-03-04T10:14:20;98518.56;;;2.65;100.00
38852;BME280;24605;50.092;9.182;2023-03-04T10:16:51;98514.97;;;2.55;99.85
38852;BME280;24605;50.092;9.182;2023-03-04T10:19:27;98517.03;;;2.63;100.00
38852;BME280;24605;50.092;9.182;2023-03-04T10:21:55;98515.16;;;2.78;98.33
38852;BME280;24605;50.092;9.182;2023-03-04T10:24:26;98519.19;;;2.95;97.83
38852;BME280;24605;50.092;9.182;2023-03-04T10:26:55;98511.84;;;2.76;97.82
38852;BME280;24605;50.092;9.182;2023-03-04T10:29:27;98515.47;;;2.73;98.64
38852;BME280;24605;50.092;9.182;2023-03-04T10:31:55;98504.00;;;2.77;98.85
38852;BME280;24605;50.092;9.182;2023-03-04T10:34:21;98503.16;;;2.77;98.53
38852;BME280;24605;50.092;9.182;2023-03-04T10:36:57;98492.47;;;2.81;98.23
38852;BME280;24605;50.092;9.182;2023-03-04T10:39:28;98487.59;;;2.90;98.79
38852;BME280;24605;50.092;9.182;2023-03-04T10:41:59;98487.75;;;3.12;97.22
38852;BME280;24605;50.092;9.182;2023-03-04T10:44:28;98481.97;;;2.96;96.62
38852;BME280;24605;50.092;9.182;2023-03-04T10:46:56;98501.03;;;3.08;97.83
38852;BME280;24605;50.092;9.182;2023-03-04T10:49:24;98502.00;;;2.94;98.30
38852;BME280;24605;50.092;9.182;2023-03-04T10:51:53;98495.53;;;3.12;98.75
38852;BME280;24605;50.092;9.182;2023-03-04T10:54:27;98493.22;;;3.21;98.49
38852;BME280;24605;50.092;9.182;2023-03-04T10:56:58;98457.88;;;3.20;95.98
38852;BME280;24605;50.092;9.182;2023-03-04T10:59:32;98465.03;;;3.40;96.28
38852;BME280;24605;50.092;9.182;2023-03-04T11:02:00;98486.09;;;3.36;96.26
38852;BME280;24605;50.092;9.182;2023-03-04T11:04:32;98494.53;;;3.26;97.27
38852;BME280;24605;50.092;9.182;2023-03-04T11:06:59;98491.25;;;3.24;97.09
38852;BME280;24605;50.092;9.182;2023-03-04T11:09:28;98491.78;;;3.41;97.25
38852;BME280;24605;50.092;9.182;2023-03-04T11:11:58;98489.69;;;3.46;96.33
38852;BME280;24605;50.092;9.182;2023-03-04T11:14:27;98486.81;;;3.38;96.37
38852;BME280;24605;50.092;9.182;2023-03-04T11:16:56;98489.66;;;3.35;95.71
38852;BME280;24605;50.092;9.182;2023-03-04T11:19:27;98483.50;;;3.36;97.02
38852;BME280;24605;50.092;9.182;2023-03-04T11:21:55;98484.47;;;3.35;96.87
38852;BME280;24605;50.092;9.182;2023-03-04T11:24:25;98480.03;;;3.24;97.28
38852;BME280;24605;50.092;9.182;2023-03-04T11:26:56;98477.31;;;3.38;97.33
38852;BME280;24605;50.092;9.182;2023-03-04T11:29:30;98476.69;;;3.35;96.60
38852;BME280;24605;50.092;9.182;2023-03-04T11:32:04;98476.13;;;3.42;97.26
38852;BME280;24605;50.092;9.182;2023-03-04T11:34:36;98476.25;;;3.41;96.99
38852;BME280;24605;50.092;9.182;2023-03-04T11:37:07;98460.91;;;3.38;96.72
38852;BME280;24605;50.092;9.182;2023-03-04T11:39:40;98469.25;;;3.30;97.93
38852;BME280;24605;50.092;9.182;2023-03-04T11:42:24;98460.63;;;3.29;97.42
38852;BME280;24605;50.092;9.182;2023-03-04T11:44:55;98459.50;;;3.34;97.08
38852;BME280;24605;50.092;9.182;2023-03-04T11:47:35;98445.97;;;3.41;97.49
38852;BME280;24605;50.092;9.182;2023-03-04T11:50:26;98462.06;;;3.58;95.79
38852;BME280;24605;50.092;9.182;2023-03-04T11:53:24;98468.97;;;3.46;97.37
38852;BME280;24605;50.092;9.182;2023-03-04T11:56:01;98446.34;;;3.48;96.97
38852;BME280;24605;50.092;9.182;2023-03-04T11:58:48;98466.50;;;3.80;96.55
38852;BME280;24605;50.092;9.182;2023-03-04T12:01:21;98462.50;;;3.76;96.00
38852;BME280;24605;50.092;9.182;2023-03-04T12:04:03;98462.66;;;3.61;95.85
38852;BME280;24605;50.092;9.182;2023-03-04T12:06:42;98456.31;;;3.66;95.08
38852;BME280;24605;50.092;9.182;2023-03-04T12:09:24;98455.91;;;3.23;98.62
38852;BME280;24605;50.092;9.182;2023-03-04T12:12:04;98456.25;;;3.79;95.65
38852;BME280;24605;50.092;9.182;2023-03-04T12:14:40;98446.59;;;3.81;94.99
38852;BME280;24605;50.092;9.182;2023-03-04T12:17:29;98443.16;;;3.80;95.03
38852;BME280;24605;50.092;9.182;2023-03-04T12:20:15;98441.63;;;3.78;95.14
38852;BME280;24605;50.092;9.182;2023-03-04T12:22:50;98423.50;;;3.89;95.05
38852;BME280;24605;50.092;9.182;2023-03-04T12:25:25;98434.06;;;4.21;93.68
38852;BME280;24605;50.092;9.182;2023-03-04T12:28:08;98422.75;;;4.22;93.31
38852;BME280;24605;50.092;9.182;2023-03-04T12:33:42;98428.41;;;4.73;89.95
38852;BME280;24605;50.092;9.182;2023-03-04T12:36:19;98422.97;;;4.65;90.61
38852;BME280;24605;50.092;9.182;2023-03-04T12:38:58;98421.44;;;4.51;90.71
38852;BME280;24605;50.092;9.182;2023-03-04T12:41:30;98423.09;;;4.41;91.44
38852;BME280;24605;50.092;9.182;2023-03-04T12:44:07;98420.03;;;4.35;90.80
38852;BME280;24605;50.092;9.182;2023-03-04T12:46:43;98411.19;;;4.49;91.00
38852;BME280;24605;50.092;9.182;2023-03-04T12:49:27;98402.28;;;4.75;90.52
38852;BME280;24605;50.092;9.182;2023-03-04T12:52:01;98395.22;;;4.77;88.99
38852;BME280;24605;50.092;9.182;2023-03-04T12:54:30;98396.22;;;5.08;88.75
38852;BME280;24605;50.092;9.182;2023-03-04T12:57:01;98382.69;;;5.26;86.56
38852;BME280;24605;50.092;9.182;2023-03-04T12:59:33;98391.47;;;5.13;86.48
38852;BME280;24605;50.092;9.182;2023-03-04T13:02:24;98380.44;;;4.89;87.29
38852;BME280;24605;50.092;9.182;2023-03-04T13:04:58;98380.94;;;4.82;87.96
38852;BME280;24605;50.092;9.182;2023-03-04T13:07:37;98380.94;;;4.82;87.11
38852;BME280;24605;50.092;9.182;2023-03-04T13:10:10;98375.59;;;4.95;86.52